createdAt,value
2019-02-22T00:01:09.248Z,101503.45
2019-02-22T00:03:37.454Z,101504.63
2019-02-22T00:06:05.518Z,101500.90
2019-02-22T00:08:35.179Z,101507.34
2019-02-22T00:11:03.244Z,101511.13
2019-02-22T00:13:31.815Z,101516.27
2019-02-22T00:15:59.886Z,101517.30
2019-02-22T00:18:28.001Z,101524.09
2019-02-22T00:20:56.364Z,101524.16
2019-02-22T00:23:24.463Z,101530.80
2019-02-22T00:25:52.532Z,101528.75
2019-02-22T00:28:22.163Z,101535.52
2019-02-22T00:30:50.198Z,101520.47
2019-02-22T00:33:18.287Z,101514.88
2019-02-22T00:35:46.358Z,101512.65
2019-02-22T00:38:14.506Z,101501.76
2019-02-22T00:40:42.710Z,101511.19
2019-02-22T00:43:11.143Z,101509.33
2019-02-22T00:45:39.685Z,101516.95
2019-02-22T00:48:07.802Z,101508.75
2019-02-22T00:50:36.119Z,101512.44
2019-02-22T00:53:04.212Z,101513.41
2019-02-22T00:55:32.370Z,101516.52
2019-02-22T00:58:00.723Z,101520.07
2019-02-22T01:00:29.099Z,101517.94
2019-02-22T01:02:57.247Z,101516.97
2019-02-22T01:05:26.356Z,101508.66
2019-02-22T01:07:56.565Z,101500.65
2019-02-22T01:10:31.119Z,101508.52
2019-02-22T01:12:54.946Z,101513.89
2019-02-22T01:15:24.909Z,101513.80
2019-02-22T01:17:53.180Z,101513.94
2019-02-22T01:20:21.950Z,101513.36
2019-02-22T01:22:50.171Z,101513.29
2019-02-22T01:25:18.211Z,101514.64
2019-02-22T01:27:46.411Z,101519.64
2019-02-22T01:30:14.477Z,101525.36
2019-02-22T01:32:42.570Z,101518.81
2019-02-22T01:35:10.623Z,101522.74
2019-02-22T01:37:39.078Z,101522.61
2019-02-22T01:40:09.081Z,101523.57
2019-02-22T01:42:37.662Z,101520.61
2019-02-22T01:45:06.339Z,101522.05
2019-02-22T01:47:34.449Z,101521.47
2019-02-22T01:50:02.879Z,101515.68
2019-02-22T01:52:32.137Z,101515.92
2019-02-22T01:55:00.344Z,101519.99
2019-02-22T01:57:28.926Z,101519.30
2019-02-22T01:59:57.038Z,101514.55
2019-02-22T02:02:25.116Z,101516.33
2019-02-22T02:04:53.328Z,101504.20
2019-02-22T02:07:21.411Z,101509.92
2019-02-22T02:09:49.591Z,101503.72
2019-02-22T02:12:18.728Z,101503.09
2019-02-22T02:14:47.278Z,101501.79
2019-02-22T02:17:17.714Z,101502.83
2019-02-22T02:19:45.652Z,101503.55
2019-02-22T02:22:13.809Z,101510.44
2019-02-22T02:24:41.889Z,101504.37
2019-02-22T02:27:10.268Z,101501.27
2019-02-22T02:29:38.313Z,101492.34
2019-02-22T02:32:06.091Z,101492.97
2019-02-22T02:34:34.984Z,101490.97
2019-02-22T02:37:03.216Z,101498.34
2019-02-22T02:39:31.422Z,101490.00
2019-02-22T02:41:59.521Z,101485.94
2019-02-22T02:44:27.585Z,101481.52
2019-02-22T02:46:55.951Z,101486.28
2019-02-22T02:49:24.022Z,101480.45
2019-02-22T02:51:52.104Z,101472.11
2019-02-22T02:54:20.201Z,101470.66
2019-02-22T02:56:48.318Z,101474.94
2019-02-22T02:59:16.653Z,101474.31
2019-02-22T03:01:44.944Z,101478.62
2019-02-22T03:04:13.054Z,101488.96
2019-02-22T03:07:04.308Z,101483.44
2019-02-22T03:09:32.953Z,101487.23
2019-02-22T03:12:01.118Z,101489.41
2019-02-22T03:14:30.428Z,101499.27
2019-02-22T03:16:58.477Z,101498.64
2019-02-22T03:19:26.557Z,101495.88
2019-02-22T03:21:54.696Z,101501.95
2019-02-22T03:24:23.044Z,101501.95
2019-02-22T03:26:51.100Z,101504.33
2019-02-22T03:29:19.513Z,101503.02
2019-02-22T03:31:48.572Z,101503.02
2019-02-22T03:34:16.618Z,101510.25
2019-02-22T03:36:44.668Z,101507.98
2019-02-22T03:39:12.710Z,101505.73
2019-02-22T03:41:40.803Z,101515.94
2019-02-22T03:44:08.882Z,101521.38
2019-02-22T03:46:36.912Z,101518.55
2019-02-22T03:49:04.972Z,101519.58
2019-02-22T03:51:33.012Z,101521.61
2019-02-22T03:54:02.414Z,101520.75
2019-02-22T03:56:30.483Z,101527.67
2019-02-22T03:58:58.559Z,101530.64
2019-02-22T04:01:26.672Z,101529.53
2019-02-22T04:03:54.761Z,101536.67
2019-02-22T04:06:22.821Z,101537.36
2019-02-22T04:08:51.900Z,101546.88
2019-02-22T04:11:19.971Z,101540.55
2019-02-22T04:13:48.568Z,101535.31
2019-02-22T04:16:16.736Z,101536.62
2019-02-22T04:18:45.108Z,101537.45
2019-02-22T04:21:13.171Z,101538.28
2019-02-22T04:23:41.219Z,101540.90
2019-02-22T04:26:09.396Z,101533.42
2019-02-22T04:28:37.464Z,101527.73
2019-02-22T04:31:05.533Z,101522.06
2019-02-22T04:33:33.588Z,101521.85
2019-02-22T04:36:01.717Z,101528.55
2019-02-22T04:38:31.457Z,101530.55
2019-02-22T04:40:59.531Z,101529.92
2019-02-22T04:43:27.582Z,101530.64
2019-02-22T04:45:55.813Z,101533.47
2019-02-22T04:48:23.943Z,101539.40
2019-02-22T04:50:52.032Z,101540.94
2019-02-22T04:53:23.337Z,101542.59
2019-02-22T04:55:51.867Z,101544.11
2019-02-22T04:58:20.208Z,101552.46
2019-02-22T05:00:48.432Z,101557.84
2019-02-22T05:03:16.487Z,101560.95
2019-02-22T05:05:44.888Z,101559.84
2019-02-22T05:08:12.957Z,101568.77
2019-02-22T05:10:41.013Z,101570.91
2019-02-22T05:13:09.136Z,101570.70
2019-02-22T05:15:37.242Z,101576.06
2019-02-22T05:18:05.362Z,101568.13
2019-02-22T05:20:33.580Z,101568.23
2019-02-22T05:23:04.437Z,101564.92
2019-02-22T05:25:31.812Z,101575.07
2019-02-22T05:28:00.021Z,101576.52
2019-02-22T05:30:28.341Z,101573.89
2019-02-22T05:32:56.685Z,101578.80
2019-02-22T05:35:24.734Z,101575.45
2019-02-22T05:37:52.884Z,101577.04
2019-02-22T05:40:21.263Z,101574.04
2019-02-22T05:42:50.640Z,101576.55
2019-02-22T05:45:18.737Z,101582.97
2019-02-22T05:47:47.107Z,101589.77
2019-02-22T05:50:15.158Z,101591.52
2019-02-22T05:52:43.227Z,101601.56
2019-02-22T05:55:11.288Z,101607.63
2019-02-22T05:57:39.341Z,101604.39
2019-02-22T06:00:07.995Z,101603.56
2019-02-22T06:02:36.044Z,101614.05
2019-02-22T06:05:04.500Z,101608.22
2019-02-22T06:07:32.746Z,101606.70
2019-02-22T06:10:01.108Z,101611.11
2019-02-22T06:12:34.526Z,101610.16
2019-02-22T06:14:59.176Z,101607.77
2019-02-22T06:17:27.320Z,101608.70
2019-02-22T06:19:55.360Z,101607.19
2019-02-22T06:22:29.542Z,101610.42
2019-02-22T06:24:53.444Z,101614.36
2019-02-22T06:27:21.487Z,101621.26
2019-02-22T06:29:49.973Z,101625.53
2019-02-22T06:32:18.501Z,101626.36
2019-02-22T06:34:46.551Z,101629.81
2019-02-22T06:37:14.616Z,101630.98
2019-02-22T06:39:42.677Z,101635.30
2019-02-22T06:42:10.739Z,101632.09
2019-02-22T06:44:38.783Z,101632.43
2019-02-22T06:47:06.834Z,101631.60
2019-02-22T06:49:35.914Z,101631.60
2019-02-22T06:52:03.975Z,101640.30
2019-02-22T06:54:32.040Z,101643.27
2019-02-22T06:57:00.486Z,101636.84
2019-02-22T06:59:28.511Z,101639.12
2019-02-22T07:01:56.556Z,101638.40
2019-02-22T07:04:24.619Z,101636.02
2019-02-22T07:06:52.693Z,101631.88
2019-02-22T07:09:20.728Z,101633.77
2019-02-22T07:12:14.147Z,101639.50
2019-02-22T07:14:42.176Z,101653.08
2019-02-22T07:17:10.239Z,101655.22
2019-02-22T07:19:38.278Z,101661.67
2019-02-22T07:22:06.637Z,101661.05
2019-02-22T07:24:34.680Z,101658.78
2019-02-22T07:27:03.067Z,101659.61
2019-02-22T07:29:31.098Z,101667.47
2019-02-22T07:32:05.864Z,101672.23
2019-02-22T07:34:29.124Z,101674.23
2019-02-22T07:36:57.207Z,101681.16
2019-02-22T07:39:28.155Z,101688.06
2019-02-22T07:41:55.167Z,101697.13
2019-02-22T07:44:23.565Z,101706.04
2019-02-22T07:46:51.625Z,101708.08
2019-02-22T07:49:24.966Z,101712.70
2019-02-22T07:51:55.855Z,101717.67
2019-02-22T07:54:23.874Z,101714.33
2019-02-22T07:56:51.933Z,101705.36
2019-02-22T07:59:19.959Z,101704.88
2019-02-22T08:01:48.370Z,101709.78
2019-02-22T08:04:16.475Z,101709.78
2019-02-22T08:06:44.712Z,101710.75
2019-02-22T08:09:12.753Z,101712.89
2019-02-22T08:11:40.800Z,101701.09
2019-02-22T08:14:08.923Z,101703.23
2019-02-22T08:16:37.310Z,101694.19
2019-02-22T08:19:05.395Z,101701.57
2019-02-22T08:21:33.419Z,101709.30
2019-02-22T08:24:01.488Z,101709.19
2019-02-22T08:26:29.812Z,101709.27
2019-02-22T08:28:58.142Z,101720.00
2019-02-22T08:31:26.442Z,101732.70
2019-02-22T08:33:57.077Z,101719.08
2019-02-22T08:36:24.782Z,101718.21
2019-02-22T08:38:53.121Z,101725.56
2019-02-22T08:41:21.191Z,101727.42
2019-02-22T08:43:49.573Z,101740.98
2019-02-22T08:46:17.681Z,101740.75
2019-02-22T08:48:46.156Z,101739.16
2019-02-22T08:51:14.236Z,101728.77
2019-02-22T08:53:42.517Z,101738.98
2019-02-22T08:56:10.550Z,101735.97
2019-02-22T08:58:38.589Z,101729.13
2019-02-22T09:01:06.647Z,101728.40
2019-02-22T09:03:36.214Z,101727.64
2019-02-22T09:06:04.243Z,101736.78
2019-02-22T09:08:33.364Z,101736.05
2019-02-22T09:11:01.402Z,101743.02
2019-02-22T09:13:29.476Z,101746.91
2019-02-22T09:15:57.525Z,101756.88
2019-02-22T09:18:25.585Z,101772.94
2019-02-22T09:20:54.039Z,101772.89
2019-02-22T09:23:22.523Z,101774.98
2019-02-22T09:25:50.594Z,101781.98
2019-02-22T09:28:18.683Z,101779.41
2019-02-22T09:30:46.725Z,101780.56
2019-02-22T09:33:15.070Z,101771.80
2019-02-22T09:35:43.121Z,101761.48
2019-02-22T09:38:11.224Z,101755.26
2019-02-22T09:40:39.547Z,101754.31
2019-02-22T09:43:07.638Z,101759.92
2019-02-22T09:45:35.689Z,101757.97
2019-02-22T09:48:03.790Z,101752.42
2019-02-22T09:50:31.940Z,101753.00
2019-02-22T09:53:00.305Z,101756.05
2019-02-22T09:55:28.359Z,101763.25
2019-02-22T09:57:56.479Z,101773.55
2019-02-22T10:00:26.245Z,101773.00
2019-02-22T10:02:54.309Z,101779.02
2019-02-22T10:05:22.271Z,101782.75
2019-02-22T10:07:50.343Z,101780.06
2019-02-22T10:10:18.744Z,101785.10
2019-02-22T10:12:47.122Z,101778.91
2019-02-22T10:15:15.439Z,101773.58
2019-02-22T10:17:44.016Z,101762.49
2019-02-22T10:20:12.194Z,101755.84
2019-02-22T10:22:40.249Z,101751.17
2019-02-22T10:25:08.400Z,101756.20
2019-02-22T10:27:36.611Z,101765.19
2019-02-22T10:30:04.962Z,101766.30
2019-02-22T10:32:33.737Z,101769.41
2019-02-22T10:35:01.926Z,101770.48
2019-02-22T10:37:30.103Z,101775.36
2019-02-22T10:39:58.171Z,101774.30
2019-02-22T10:42:27.247Z,101777.52
2019-02-22T10:44:55.334Z,101778.58
2019-02-22T10:47:23.501Z,101779.01
2019-02-22T10:49:51.588Z,101783.75
2019-02-22T10:52:19.659Z,101771.97
2019-02-22T10:54:47.718Z,101774.41
2019-02-22T10:57:15.824Z,101782.08
2019-02-22T10:59:43.877Z,101777.75
2019-02-22T11:02:11.932Z,101773.78
2019-02-22T11:04:39.985Z,101772.77
2019-02-22T11:07:08.025Z,101774.54
2019-02-22T11:09:36.099Z,101770.22
2019-02-22T11:12:04.238Z,101767.33
2019-02-22T11:14:32.284Z,101765.09
2019-02-22T11:17:00.701Z,101762.25
2019-02-22T11:19:28.786Z,101756.55
2019-02-22T11:21:57.092Z,101753.28
2019-02-22T11:24:25.398Z,101751.84
2019-02-22T11:26:53.695Z,101755.35
2019-02-22T11:29:22.044Z,101759.16
2019-02-22T11:31:50.356Z,101757.39
2019-02-22T11:34:18.721Z,101757.03
2019-02-22T11:36:47.066Z,101762.97
2019-02-22T11:39:15.408Z,101758.31
2019-02-22T11:41:43.433Z,101758.79
2019-02-22T11:44:11.526Z,101761.91
2019-02-22T11:46:39.543Z,101766.00
2019-02-22T11:49:07.608Z,101762.52
2019-02-22T11:51:35.638Z,101759.79
2019-02-22T11:54:04.920Z,101758.41
2019-02-22T11:56:32.980Z,101755.52
2019-02-22T11:59:02.144Z,101762.38
2019-02-22T12:01:30.209Z,101756.77
2019-02-22T12:03:58.291Z,101755.00
2019-02-22T12:06:26.597Z,101749.70
2019-02-22T12:08:54.806Z,101752.67
2019-02-22T12:11:22.874Z,101754.49
2019-02-22T12:13:51.016Z,101753.80
2019-02-22T12:16:19.062Z,101746.00
2019-02-22T12:18:47.268Z,101744.09
2019-02-22T12:21:16.368Z,101748.95
2019-02-22T12:23:44.693Z,101739.71
2019-02-22T12:26:12.722Z,101744.95
2019-02-22T12:28:40.773Z,101742.68
2019-02-22T12:31:08.758Z,101744.44
2019-02-22T12:33:36.854Z,101740.55
2019-02-22T12:36:04.906Z,101739.63
2019-02-22T12:38:33.980Z,101739.48
2019-02-22T12:41:02.038Z,101740.73
2019-02-22T12:43:30.232Z,101747.13
2019-02-22T12:45:58.300Z,101752.61
2019-02-22T12:48:26.364Z,101754.95
2019-02-22T12:50:54.409Z,101758.99
2019-02-22T12:53:22.444Z,101760.97
2019-02-22T12:55:50.487Z,101759.55
2019-02-22T12:58:18.525Z,101751.95
2019-02-22T13:00:46.606Z,101760.56
2019-02-22T13:03:14.817Z,101750.45
2019-02-22T13:05:42.877Z,101754.66
2019-02-22T13:08:12.337Z,101748.65
2019-02-22T13:10:40.412Z,101738.58
2019-02-22T13:13:08.476Z,101733.87
2019-02-22T13:15:36.533Z,101742.56
2019-02-22T13:18:04.591Z,101741.21
2019-02-22T13:20:32.652Z,101743.23
2019-02-22T13:23:01.262Z,101749.09
2019-02-22T13:25:29.616Z,101741.36
2019-02-22T13:27:57.693Z,101748.23
2019-02-22T13:30:25.745Z,101742.37
2019-02-22T13:32:53.856Z,101746.70
2019-02-22T13:35:22.203Z,101755.16
2019-02-22T13:37:50.840Z,101750.65
2019-02-22T13:40:18.909Z,101745.26
2019-02-22T13:42:46.975Z,101743.21
2019-02-22T13:45:26.059Z,101742.77
2019-02-22T13:47:45.629Z,101738.25
2019-02-22T13:50:13.982Z,101732.48
2019-02-22T13:52:42.077Z,101735.37
2019-02-22T13:55:10.247Z,101733.61
2019-02-22T13:57:38.717Z,101730.15
2019-02-22T14:00:10.844Z,101730.83
2019-02-22T14:02:38.972Z,101731.48
2019-02-22T14:05:07.591Z,101725.15
2019-02-22T14:07:35.678Z,101728.23
2019-02-22T14:10:04.076Z,101736.57
2019-02-22T14:12:33.113Z,101726.94
2019-02-22T14:15:01.174Z,101729.98
2019-02-22T14:17:29.524Z,101730.12
2019-02-22T14:19:58.140Z,101730.73
2019-02-22T14:22:26.231Z,101738.19
2019-02-22T14:24:54.361Z,101740.00
2019-02-22T14:27:22.431Z,101745.39
2019-02-22T14:29:51.819Z,101742.00
2019-02-22T14:32:27.698Z,101742.45
2019-02-22T14:34:55.893Z,101740.17
2019-02-22T14:37:23.957Z,101746.89
2019-02-22T14:40:01.061Z,101744.76
2019-02-22T14:42:23.298Z,101750.98
2019-02-22T14:44:52.502Z,101753.95
2019-02-22T14:47:20.560Z,101755.55
2019-02-22T14:49:48.746Z,101760.55
2019-02-22T14:52:16.788Z,101763.75
2019-02-22T14:54:44.889Z,101752.73
2019-02-22T14:57:17.566Z,101764.72
2019-02-22T14:59:45.706Z,101762.33
2019-02-22T15:02:14.417Z,101766.94
2019-02-22T15:04:45.156Z,101762.37
2019-02-22T15:07:13.879Z,101768.48
2019-02-22T15:09:42.514Z,101765.11
2019-02-22T15:12:12.074Z,101762.33
2019-02-22T15:14:40.213Z,101766.05
2019-02-22T15:17:33.443Z,101763.62
2019-02-22T15:20:18.392Z,101764.63
2019-02-22T15:22:46.674Z,101766.86
2019-02-22T15:25:14.965Z,101768.19
2019-02-22T15:27:43.017Z,101770.17
2019-02-22T15:30:12.706Z,101771.98
2019-02-22T15:32:40.700Z,101775.56
2019-02-22T15:35:11.523Z,101775.69
2019-02-22T15:37:43.194Z,101778.76
2019-02-22T15:40:11.083Z,101777.80
2019-02-22T15:42:40.770Z,101778.70
2019-02-22T15:45:10.341Z,101777.62
2019-02-22T15:47:51.608Z,101778.68
2019-02-22T15:50:19.695Z,101779.56
2019-02-22T15:52:48.764Z,101776.97
2019-02-22T15:55:16.860Z,101779.02
2019-02-22T15:57:45.271Z,101781.68
2019-02-22T16:00:21.427Z,101782.05
2019-02-22T16:02:50.034Z,101786.84
2019-02-22T16:05:39.939Z,101787.55
2019-02-22T16:08:08.400Z,101788.91
2019-02-22T16:10:36.479Z,101786.09
2019-02-22T16:13:04.526Z,101784.47
2019-02-22T16:15:33.076Z,101787.31
2019-02-22T16:18:01.456Z,101783.50
2019-02-22T16:20:29.721Z,101785.33
2019-02-22T16:22:58.223Z,101795.75
2019-02-22T16:25:26.374Z,101795.27
2019-02-22T16:27:54.501Z,101797.70
2019-02-22T16:30:26.793Z,101798.20
2019-02-22T16:32:54.838Z,101800.67
2019-02-22T16:35:23.685Z,101803.47
2019-02-22T16:37:52.027Z,101801.97
2019-02-22T16:40:21.922Z,101801.62
2019-02-22T16:42:49.976Z,101799.63
2019-02-22T16:45:18.177Z,101805.38
2019-02-22T16:47:46.563Z,101798.59
2019-02-22T16:50:14.652Z,101790.48
2019-02-22T16:52:45.163Z,101788.00
2019-02-22T16:55:13.954Z,101787.65
2019-02-22T16:57:42.343Z,101787.95
2019-02-22T17:00:12.286Z,101790.60
2019-02-22T17:02:40.545Z,101790.58
2019-02-22T17:05:11.357Z,101787.11
2019-02-22T17:07:41.233Z,101797.32
2019-02-22T17:10:09.852Z,101795.14
2019-02-22T17:12:38.207Z,101798.41
2019-02-22T17:15:07.723Z,101799.50
2019-02-22T17:17:35.828Z,101802.14
2019-02-22T17:20:04.978Z,101796.00
2019-02-22T17:22:33.060Z,101796.46
2019-02-22T17:25:01.096Z,101801.41
2019-02-22T17:27:30.001Z,101801.70
2019-02-22T17:29:59.311Z,101800.34
2019-02-22T17:32:28.062Z,101797.86
2019-02-22T17:34:56.523Z,101800.78
2019-02-22T17:37:24.948Z,101806.19
2019-02-22T17:39:53.434Z,101804.81
2019-02-22T17:42:21.991Z,101808.06
2019-02-22T17:44:50.030Z,101815.27
2019-02-22T17:47:19.531Z,101816.70
2019-02-22T17:49:47.587Z,101813.84
2019-02-22T17:52:15.696Z,101813.29
2019-02-22T17:54:43.974Z,101809.44
2019-02-22T17:57:12.355Z,101814.00
2019-02-22T17:59:40.673Z,101822.17
2019-02-22T18:02:09.797Z,101826.91
2019-02-22T18:04:38.256Z,101822.23
2019-02-22T18:07:06.477Z,101824.47
2019-02-22T18:09:34.852Z,101823.25
2019-02-22T18:12:02.956Z,101822.53
2019-02-22T18:14:31.092Z,101826.92
2019-02-22T18:17:07.974Z,101826.22
2019-02-22T18:19:31.707Z,101825.82
2019-02-22T18:21:59.886Z,101822.94
2019-02-22T18:24:28.894Z,101821.88
2019-02-22T18:26:57.016Z,101828.55
2019-02-22T18:29:35.094Z,101832.59
2019-02-22T18:31:56.403Z,101832.67
2019-02-22T18:34:24.521Z,101830.44
2019-02-22T18:36:52.615Z,101834.63
2019-02-22T18:39:20.712Z,101833.53
2019-02-22T18:41:48.917Z,101836.40
2019-02-22T18:44:18.807Z,101842.38
2019-02-22T18:46:47.021Z,101849.50
2019-02-22T18:49:15.066Z,101850.20
2019-02-22T18:51:43.168Z,101846.25
2019-02-22T18:54:11.219Z,101846.13
2019-02-22T18:56:39.779Z,101848.64
2019-02-22T18:59:08.081Z,101850.66
2019-02-22T19:01:36.204Z,101841.44
2019-02-22T19:04:04.277Z,101850.02
2019-02-22T19:06:32.444Z,101852.52
2019-02-22T19:09:00.779Z,101853.34
2019-02-22T19:11:28.865Z,101851.37
2019-02-22T19:13:56.915Z,101838.37
2019-02-22T19:16:25.012Z,101842.64
2019-02-22T19:18:53.053Z,101847.37
2019-02-22T19:21:21.130Z,101842.94
2019-02-22T19:23:49.171Z,101850.14
2019-02-22T19:26:17.252Z,101849.98
2019-02-22T19:28:45.278Z,101853.62
2019-02-22T19:31:13.383Z,101850.31
2019-02-22T19:33:41.449Z,101846.20
2019-02-22T19:36:09.541Z,101848.52
2019-02-22T19:38:37.578Z,101853.80
2019-02-22T19:41:05.791Z,101849.56
2019-02-22T19:43:33.942Z,101852.00
2019-02-22T19:46:02.086Z,101855.28
2019-02-22T19:48:30.510Z,101859.03
2019-02-22T19:50:58.564Z,101854.56
2019-02-22T19:53:26.699Z,101862.56
2019-02-22T19:55:55.023Z,101862.37
2019-02-22T19:58:23.420Z,101863.25
2019-02-22T20:00:51.497Z,101865.55
2019-02-22T20:03:19.781Z,101869.73
2019-02-22T20:05:47.920Z,101867.98
2019-02-22T20:08:16.100Z,101862.62
2019-02-22T20:10:44.269Z,101873.34
2019-02-22T20:13:13.583Z,101874.91
2019-02-22T20:15:41.631Z,101870.83
2019-02-22T20:18:09.752Z,101870.39
2019-02-22T20:20:37.878Z,101875.03
2019-02-22T20:23:06.219Z,101876.61
2019-02-22T20:25:34.261Z,101879.36
2019-02-22T20:28:02.642Z,101883.07
2019-02-22T20:30:30.714Z,101878.19
2019-02-22T20:32:58.896Z,101884.95
2019-02-22T20:35:26.946Z,101881.89
2019-02-22T20:37:55.370Z,101891.54
2019-02-22T20:40:24.421Z,101901.53
2019-02-22T20:42:52.644Z,101896.16
2019-02-22T20:45:20.780Z,101906.06
2019-02-22T20:47:49.048Z,101908.80
2019-02-22T20:50:17.333Z,101905.33
2019-02-22T20:52:45.537Z,101905.80
2019-02-22T20:55:13.589Z,101910.91
2019-02-22T20:57:41.696Z,101915.08
2019-02-22T21:00:13.121Z,101910.09
2019-02-22T21:02:41.315Z,101910.55
